SAEZ/EZE METAR and TAF weather

Enter ICAO airport designator
Station Type Date Time Source
SAEZ METAR 2019/05/19 21:00 UTC NOAA

SAEZ 192100Z VRB03KT CAVOK 14/11 Q1017 NOSIG


Station Type Date Time Source
SAEZ Decoded METAR 2019/05/19 21:00 UTC NOAA

Ezeiza Aerodrome, Argentina (SAEZ) 34-49S 058-32W 20M
May 19, 2019 - 05:00 PM EDT / 2019.05.19 2100 UTC
Wind: Variable at 3 MPH (3 KT):0
Visibility: greater than 7 mile(s):0
Temperature: 57 F (14 C)
Dew Point: 51 F (11 C)
Relative Humidity: 82%
Pressure (altimeter): 30.03 in. Hg (1017 hPa)
ob: SAEZ 192100Z VRB03KT CAVOK 14/11 Q1017 NOSIG
cycle: 21

Station Type Date Time Source
SAEZ TAF 2019/05/19 18:06 UTC NOAA

TAF TAF SAEZ 191700Z 1918/2018 18008KT 9000 BKN010 TX17/1918Z TN09/2010Z
BECMG 1919/1922 9999 SCT040 PROB30 2006/2012 15005KT 5000 BR
BECMG 2014/2015 CAVOK

Example: see airport list